createdAt,value
2022-09-07T00:00:59.628Z,88.03
2022-09-07T00:01:59.622Z,88.13
2022-09-07T00:02:59.645Z,88.43
2022-09-07T00:03:59.663Z,88.18
2022-09-07T00:04:59.583Z,88.13
2022-09-07T00:05:59.573Z,88.38
2022-09-07T00:06:59.560Z,88.48
2022-09-07T00:07:59.573Z,88.68
2022-09-07T00:08:59.559Z,88.38
2022-09-07T00:09:59.548Z,88.58
2022-09-07T00:10:59.515Z,88.28
2022-09-07T00:11:59.510Z,88.48
2022-09-07T00:12:59.505Z,88.38
2022-09-07T00:13:59.482Z,88.38
2022-09-07T00:14:59.489Z,88.58
2022-09-07T00:15:59.527Z,88.43
2022-09-07T00:16:59.446Z,88.58
2022-09-07T00:17:59.437Z,89.18
2022-09-07T00:18:59.429Z,88.78
2022-09-07T00:19:59.416Z,89.28
2022-09-07T00:20:59.425Z,88.98
2022-09-07T00:21:59.392Z,89.18
2022-09-07T00:22:59.381Z,89.89
2022-09-07T00:23:59.372Z,89.39
2022-09-07T00:24:59.358Z,89.69
2022-09-07T00:25:59.366Z,90.19
2022-09-07T00:26:59.336Z,89.99
2022-09-07T00:27:59.323Z,90.44
2022-09-07T00:28:59.331Z,90.29
2022-09-07T00:29:59.301Z,90.29
2022-09-07T00:30:59.386Z,90.33
2022-09-07T00:31:59.279Z,90.09
2022-09-07T00:32:59.269Z,90.09
2022-09-07T00:33:59.255Z,89.79
2022-09-07T00:34:59.263Z,90.69
2022-09-07T00:35:59.242Z,90.64
2022-09-07T00:36:59.344Z,90.49
2022-09-07T00:37:59.213Z,90.69
2022-09-07T00:38:59.200Z,90.49
2022-09-07T00:39:59.233Z,90.39
2022-09-07T00:40:59.185Z,90.33
2022-09-07T00:41:59.165Z,90.53
2022-09-07T00:42:59.155Z,90.33
2022-09-07T00:43:59.145Z,90.09
2022-09-07T00:44:59.264Z,90.13
2022-09-07T00:45:59.120Z,90.23
2022-09-07T00:46:59.147Z,89.99
2022-09-07T00:47:59.098Z,89.99
2022-09-07T00:48:59.085Z,90.39
2022-09-07T00:49:59.087Z,90.39
2022-09-07T00:50:59.087Z,90.44
2022-09-07T00:51:59.059Z,89.93
2022-09-07T00:52:59.043Z,89.93
2022-09-07T00:53:59.031Z,90.39
2022-09-07T00:54:59.047Z,90.33
2022-09-07T00:55:59.047Z,90.23
2022-09-07T00:56:58.993Z,89.93
2022-09-07T00:57:58.985Z,90.03
2022-09-07T00:58:58.972Z,90.13
2022-09-07T00:59:58.970Z,90.03
2022-09-07T01:00:58.949Z,90.44
2022-09-07T01:01:59.056Z,90.23
2022-09-07T01:02:59.173Z,90.33
2022-09-07T01:03:58.938Z,90.13
2022-09-07T01:04:58.903Z,90.44
2022-09-07T01:05:58.894Z,90.03
2022-09-07T01:06:58.901Z,89.93
2022-09-07T01:07:58.879Z,90.03
2022-09-07T01:08:58.862Z,90.03
2022-09-07T01:09:58.865Z,90.73
2022-09-07T01:10:58.836Z,90.13
2022-09-07T01:11:58.864Z,90.44
2022-09-07T01:12:58.814Z,90.13
2022-09-07T01:13:58.806Z,90.13
2022-09-07T01:14:58.813Z,90.33
2022-09-07T01:15:58.805Z,90.23
2022-09-07T01:16:58.768Z,90.23
2022-09-07T01:17:58.780Z,90.33
2022-09-07T01:18:58.746Z,90.94
2022-09-07T01:19:58.757Z,91.04
2022-09-07T01:20:58.722Z,91.04
2022-09-07T01:21:58.740Z,90.84
2022-09-07T01:22:58.700Z,91.04
2022-09-07T01:23:58.689Z,90.84
2022-09-07T01:24:58.699Z,91.14
2022-09-07T01:25:58.668Z,90.44
2022-09-07T01:26:58.655Z,90.53
2022-09-07T01:27:58.648Z,90.53
2022-09-07T01:28:58.653Z,90.94
2022-09-07T01:29:58.645Z,90.94
2022-09-07T01:30:58.712Z,91.04
2022-09-07T01:31:58.604Z,90.84
2022-09-07T01:32:58.587Z,89.93
2022-09-07T01:33:58.585Z,90.44
2022-09-07T01:34:58.585Z,89.93
2022-09-07T01:35:58.556Z,90.49
2022-09-07T01:36:58.542Z,90.89
2022-09-07T01:37:58.532Z,89.89
2022-09-07T01:38:58.526Z,90.29
2022-09-07T01:39:58.575Z,90.29
2022-09-07T01:40:58.498Z,90.29
2022-09-07T01:41:58.514Z,90.39
2022-09-07T01:42:58.475Z,90.39
2022-09-07T01:43:58.536Z,90.09
2022-09-07T01:44:58.522Z,89.93
2022-09-07T01:45:58.496Z,90.03
2022-09-07T01:46:58.433Z,90.44
2022-09-07T01:47:58.443Z,90.23
2022-09-07T01:48:58.409Z,90.13
2022-09-07T01:49:58.402Z,90.03
2022-09-07T01:50:58.414Z,90.23
2022-09-07T01:51:58.376Z,90.33
2022-09-07T01:52:58.362Z,90.53
2022-09-07T01:53:58.351Z,90.84
2022-09-07T01:54:58.341Z,90.13
2022-09-07T01:55:58.538Z,90.44
2022-09-07T01:56:58.315Z,90.44
2022-09-07T01:57:58.335Z,90.03
2022-09-07T01:58:58.293Z,89.99
2022-09-07T01:59:58.285Z,89.18
2022-09-07T02:00:58.387Z,89.39
2022-09-07T02:01:58.360Z,89.69
2022-09-07T02:02:58.419Z,89.73
2022-09-07T02:03:58.242Z,89.59
2022-09-07T02:04:58.227Z,89.79
2022-09-07T02:05:58.239Z,89.63
2022-09-07T02:06:58.240Z,89.53
2022-09-07T02:07:58.197Z,89.39
2022-09-07T02:08:58.184Z,90.03
2022-09-07T02:09:58.179Z,89.83
2022-09-07T02:10:58.178Z,90.44
2022-09-07T02:11:58.151Z,90.13
2022-09-07T02:12:58.157Z,90.73
2022-09-07T02:13:58.128Z,89.93
2022-09-07T02:14:58.112Z,89.93
2022-09-07T02:15:58.174Z,89.83
2022-09-07T02:16:58.112Z,90.13
2022-09-07T02:17:58.082Z,90.17
2022-09-07T02:18:58.068Z,90.07
2022-09-07T02:19:58.061Z,89.97
2022-09-07T02:20:58.047Z,90.68
2022-09-07T02:21:58.056Z,90.68
2022-09-07T02:22:58.032Z,91.08
2022-09-07T02:23:58.016Z,90.88
2022-09-07T02:24:58.002Z,90.68
2022-09-07T02:25:57.988Z,90.98
2022-09-07T02:26:58.002Z,90.88
2022-09-07T02:27:57.965Z,90.68
2022-09-07T02:28:57.958Z,90.68
2022-09-07T02:29:57.948Z,90.98
2022-09-07T02:30:58.006Z,90.88
2022-09-07T02:31:57.949Z,90.78
2022-09-07T02:32:57.912Z,90.98
2022-09-07T02:33:57.918Z,91.08
2022-09-07T02:34:57.887Z,90.62
2022-09-07T02:35:57.874Z,90.78
2022-09-07T02:36:57.887Z,90.78
2022-09-07T02:37:57.855Z,90.78
2022-09-07T02:38:57.848Z,90.92
2022-09-07T02:39:57.963Z,91.22
2022-09-07T02:40:57.819Z,90.92
2022-09-07T02:41:57.808Z,91.13
2022-09-07T02:42:57.819Z,91.33
2022-09-07T02:43:57.785Z,91.08
2022-09-07T02:44:57.774Z,91.22
2022-09-07T02:45:57.797Z,91.93
2022-09-07T02:46:57.755Z,91.93
2022-09-07T02:47:57.899Z,91.22
2022-09-07T02:48:57.729Z,91.73
2022-09-07T02:49:57.717Z,91.53
2022-09-07T02:50:57.706Z,91.27
2022-09-07T02:51:57.696Z,91.02
2022-09-07T02:52:57.715Z,91.37
2022-09-07T02:53:57.674Z,91.47
2022-09-07T02:54:57.663Z,91.42
2022-09-07T02:55:57.649Z,91.67
2022-09-07T02:56:57.642Z,91.37
2022-09-07T02:57:57.627Z,91.53
2022-09-07T02:58:57.637Z,91.42
2022-09-07T02:59:57.603Z,91.77
2022-09-07T03:00:57.641Z,91.77
2022-09-07T03:01:57.602Z,91.22
2022-09-07T03:02:57.651Z,91.93
2022-09-07T03:03:57.580Z,91.67
2022-09-07T03:04:57.548Z,91.42
2022-09-07T03:05:57.560Z,91.33
2022-09-07T03:06:57.549Z,91.63
2022-09-07T03:07:57.545Z,91.73
2022-09-07T03:08:57.503Z,91.22
2022-09-07T03:09:57.492Z,91.53
2022-09-07T03:10:57.493Z,91.83
2022-09-07T03:11:57.470Z,91.42
2022-09-07T03:12:57.479Z,91.42
2022-09-07T03:13:57.446Z,91.42
2022-09-07T03:14:57.437Z,91.22
2022-09-07T03:15:57.491Z,91.93
2022-09-07T03:16:57.412Z,92.13
2022-09-07T03:17:57.423Z,92.13
2022-09-07T03:18:57.390Z,92.03
2022-09-07T03:19:57.380Z,92.33
2022-09-07T03:20:57.367Z,91.93
2022-09-07T03:21:57.357Z,92.03
2022-09-07T03:22:57.369Z,91.18
2022-09-07T03:23:57.331Z,91.13
2022-09-07T03:24:57.322Z,91.13
2022-09-07T03:25:57.330Z,90.88
2022-09-07T03:26:57.299Z,91.02
2022-09-07T03:27:57.286Z,90.58
2022-09-07T03:28:57.276Z,91.28
2022-09-07T03:29:57.285Z,91.28
2022-09-07T03:30:57.365Z,91.44
2022-09-07T03:31:57.243Z,91.44
2022-09-07T03:32:57.232Z,91.34
2022-09-07T03:33:57.224Z,90.89
2022-09-07T03:34:57.210Z,90.29
2022-09-07T03:35:57.250Z,90.99
2022-09-07T03:36:57.187Z,90.55
2022-09-07T03:37:57.174Z,90.55
2022-09-07T03:38:57.165Z,90.95
2022-09-07T03:39:57.317Z,90.45
2022-09-07T03:40:57.165Z,89.75
2022-09-07T03:41:57.134Z,89.84
2022-09-07T03:42:57.118Z,89.84
2022-09-07T03:43:57.115Z,90.34
2022-09-07T03:44:57.097Z,90.25
2022-09-07T03:45:57.141Z,89.95
2022-09-07T03:46:57.083Z,90.75
2022-09-07T03:47:57.061Z,90.34
2022-09-07T03:48:57.053Z,90.15
2022-09-07T03:49:57.109Z,90.25
2022-09-07T03:50:57.032Z,90.00
2022-09-07T03:51:57.041Z,90.00
2022-09-07T03:52:57.066Z,90.34
2022-09-07T03:53:56.993Z,90.65
2022-09-07T03:54:56.986Z,89.90
2022-09-07T03:55:56.986Z,89.95
2022-09-07T03:56:56.982Z,90.25
2022-09-07T03:57:56.949Z,90.15
2022-09-07T03:58:56.938Z,90.15
2022-09-07T03:59:56.925Z,90.55
2022-09-07T04:00:56.969Z,90.85
2022-09-07T04:01:56.922Z,90.45
2022-09-07T04:02:56.978Z,90.85
2022-09-07T04:04:01.744Z,91.09
2022-09-07T04:04:57.869Z,90.55
2022-09-07T04:05:56.856Z,90.55
2022-09-07T04:06:56.849Z,90.75
2022-09-07T04:07:56.840Z,90.95
2022-09-07T04:08:56.854Z,91.05
2022-09-07T04:09:56.819Z,90.95
2022-09-07T04:10:56.801Z,90.55
2022-09-07T04:11:56.791Z,90.69
2022-09-07T04:12:56.780Z,90.79
2022-09-07T04:13:56.789Z,90.39
2022-09-07T04:14:56.838Z,90.79
2022-09-07T04:15:56.744Z,90.99
2022-09-07T04:16:56.842Z,90.99
2022-09-07T04:17:56.816Z,90.29
2022-09-07T04:18:56.712Z,90.79
2022-09-07T04:19:56.731Z,90.99
2022-09-07T04:20:56.712Z,91.09
2022-09-07T04:21:56.696Z,90.99
2022-09-07T04:22:56.667Z,90.99
2022-09-07T04:23:56.686Z,90.99
2022-09-07T04:24:56.645Z,90.79
2022-09-07T04:25:56.631Z,90.89
2022-09-07T04:26:56.621Z,90.89
2022-09-07T04:27:56.607Z,91.19
2022-09-07T04:28:56.608Z,90.59
2022-09-07T04:29:56.652Z,90.89
2022-09-07T04:30:56.669Z,90.79
2022-09-07T04:31:56.577Z,90.69
2022-09-07T04:32:56.556Z,90.69
2022-09-07T04:33:56.566Z,90.79
2022-09-07T04:34:56.550Z,90.64
2022-09-07T04:35:56.525Z,90.29
2022-09-07T04:36:56.518Z,90.29
2022-09-07T04:37:56.551Z,90.79
2022-09-07T04:38:56.491Z,90.84
2022-09-07T04:39:56.527Z,90.79
2022-09-07T04:40:56.463Z,90.69
2022-09-07T04:41:56.475Z,90.79
2022-09-07T04:42:56.442Z,90.99
2022-09-07T04:43:56.454Z,90.69
2022-09-07T04:44:56.442Z,90.59
2022-09-07T04:45:56.466Z,90.64
2022-09-07T04:46:56.395Z,90.94
2022-09-07T04:47:56.385Z,90.69
2022-09-07T04:48:56.394Z,90.64
2022-09-07T04:49:56.359Z,90.73
2022-09-07T04:50:56.351Z,90.44
2022-09-07T04:51:56.338Z,90.64
2022-09-07T04:52:56.328Z,90.64
2022-09-07T04:53:56.369Z,90.73
2022-09-07T04:54:56.305Z,90.73
2022-09-07T04:55:56.293Z,90.84
2022-09-07T04:56:56.305Z,90.84
2022-09-07T04:57:56.270Z,91.14
2022-09-07T04:58:56.276Z,91.04
2022-09-07T04:59:56.250Z,90.99
2022-09-07T05:00:56.289Z,90.49
2022-09-07T05:01:56.318Z,90.89
2022-09-07T05:02:56.234Z,90.59
2022-09-07T05:03:56.202Z,90.79
2022-09-07T05:04:59.438Z,90.69
2022-09-07T05:05:57.179Z,90.99
2022-09-07T05:06:56.170Z,90.89
2022-09-07T05:07:56.179Z,91.09
2022-09-07T05:08:56.150Z,90.79
2022-09-07T05:09:56.142Z,90.09
2022-09-07T05:10:56.128Z,89.69
2022-09-07T05:11:56.115Z,90.59
2022-09-07T05:12:56.131Z,90.49
2022-09-07T05:13:56.110Z,90.49
2022-09-07T05:14:56.087Z,89.99
2022-09-07T05:15:56.093Z,89.99
2022-09-07T05:16:56.108Z,90.34
2022-09-07T05:17:56.070Z,89.59
2022-09-07T05:18:56.040Z,89.24
2022-09-07T05:19:56.024Z,89.44
2022-09-07T05:20:56.011Z,88.94
2022-09-07T05:21:56.022Z,89.04
2022-09-07T05:22:55.988Z,88.94
2022-09-07T05:23:56.001Z,89.04
2022-09-07T05:24:55.998Z,89.34
2022-09-07T05:25:55.954Z,88.64
2022-09-07T05:26:55.943Z,88.34
2022-09-07T05:27:55.931Z,88.74
2022-09-07T05:31:56.883Z,88.23
2022-09-07T05:32:55.886Z,88.43
2022-09-07T05:34:56.852Z,88.23
2022-09-07T05:35:55.839Z,87.89
2022-09-07T05:36:55.936Z,87.83
2022-09-07T05:37:55.823Z,87.33
2022-09-07T05:38:55.808Z,87.13
2022-09-07T05:39:55.839Z,87.08
2022-09-07T05:40:55.786Z,87.08
2022-09-07T05:41:55.807Z,87.13
2022-09-07T05:42:55.762Z,87.19
2022-09-07T05:44:56.737Z,86.79
2022-09-07T05:45:55.793Z,85.88
2022-09-07T05:46:55.716Z,86.08
2022-09-07T05:47:55.728Z,85.88
2022-09-07T05:48:55.694Z,85.98
2022-09-07T05:49:56.986Z,86.14
2022-09-07T05:50:55.674Z,85.88
2022-09-07T05:51:55.789Z,86.04
2022-09-07T05:52:55.668Z,86.04
2022-09-07T05:53:55.637Z,86.14
2022-09-07T05:55:03.243Z,86.85
2022-09-07T05:55:56.613Z,86.85
2022-09-07T05:56:55.604Z,86.54
2022-09-07T05:57:55.609Z,85.94
2022-09-07T05:58:55.583Z,85.60
2022-09-07T05:59:55.570Z,85.19
2022-09-07T06:00:55.558Z,84.99
2022-09-07T06:01:55.678Z,84.59
2022-09-07T06:02:55.708Z,84.29
2022-09-07T06:03:55.526Z,84.69
2022-09-07T06:04:55.513Z,84.59
2022-09-07T06:05:55.501Z,86.00
2022-09-07T06:07:56.473Z,87.91
2022-09-07T06:08:55.468Z,88.41
2022-09-07T06:10:56.496Z,89.62
2022-09-07T06:11:55.430Z,89.92
2022-09-07T06:12:55.422Z,90.66
2022-09-07T06:13:55.408Z,90.46
2022-09-07T06:14:55.416Z,90.46
2022-09-07T06:15:55.384Z,90.26
2022-09-07T06:16:55.391Z,90.77
2022-09-07T06:17:55.364Z,90.86
2022-09-07T06:18:55.353Z,91.47
2022-09-07T06:19:55.369Z,91.87
2022-09-07T06:20:55.328Z,91.82
2022-09-07T06:21:55.316Z,91.71
2022-09-07T06:22:55.308Z,90.41
2022-09-07T06:23:55.299Z,90.50
2022-09-07T06:24:55.287Z,90.61
2022-09-07T06:25:55.291Z,90.91
2022-09-07T06:26:55.266Z,91.21
2022-09-07T06:27:55.249Z,91.51
2022-09-07T06:28:57.877Z,92.32
2022-09-07T06:29:55.226Z,91.82
2022-09-07T06:30:55.245Z,91.82
2022-09-07T06:32:56.197Z,91.82
2022-09-07T06:33:55.181Z,91.71
2022-09-07T06:34:55.171Z,91.82
2022-09-07T06:35:55.178Z,92.02
2022-09-07T06:36:55.153Z,91.11
2022-09-07T06:37:55.158Z,90.46
2022-09-07T06:38:55.125Z,91.01
2022-09-07T06:39:55.173Z,89.46
2022-09-07T06:42:55.102Z,90.16
2022-09-07T06:43:55.069Z,89.31
2022-09-07T06:44:55.081Z,88.41
2022-09-07T06:45:55.399Z,88.41
2022-09-07T06:47:56.041Z,89.37
2022-09-07T06:48:55.039Z,89.17
2022-09-07T06:49:55.002Z,88.87
2022-09-07T06:50:55.010Z,87.96
2022-09-07T06:51:55.012Z,89.63
2022-09-07T06:55:54.954Z,88.12
2022-09-07T06:56:54.941Z,88.83
2022-09-07T06:57:54.912Z,88.23
2022-09-07T06:58:54.899Z,88.29
2022-09-07T06:59:54.894Z,87.52
2022-09-07T07:00:54.923Z,88.23
2022-09-07T07:01:54.896Z,88.59
2022-09-07T07:02:54.907Z,87.48
2022-09-07T07:03:54.850Z,87.58
2022-09-07T07:04:54.839Z,86.88
2022-09-07T07:05:54.849Z,86.38
2022-09-07T07:06:54.815Z,85.83
2022-09-07T07:07:54.804Z,85.63
2022-09-07T07:08:54.795Z,85.94
2022-09-07T07:09:54.807Z,85.83
2022-09-07T07:10:54.773Z,86.04
2022-09-07T07:11:54.763Z,86.64
2022-09-07T07:12:54.748Z,86.33
2022-09-07T07:13:54.737Z,85.89
2022-09-07T07:14:54.748Z,86.40
2022-09-07T07:15:54.803Z,86.90
2022-09-07T07:16:54.725Z,86.85
2022-09-07T07:17:59.127Z,87.76
2022-09-07T07:18:55.679Z,87.92
2022-09-07T07:19:54.670Z,87.82
2022-09-07T07:20:54.658Z,88.02
2022-09-07T07:22:55.661Z,87.52
2022-09-07T07:23:54.803Z,87.37
2022-09-07T07:24:54.617Z,87.57
2022-09-07T07:25:54.603Z,86.77
2022-09-07T07:26:54.590Z,86.43
2022-09-07T07:27:54.889Z,86.13
2022-09-07T07:29:03.314Z,83.93
2022-09-07T07:29:55.556Z,85.23
2022-09-07T07:30:54.547Z,85.43
2022-09-07T07:31:54.534Z,84.43
2022-09-07T07:32:54.581Z,84.19
2022-09-07T07:33:54.668Z,83.99
2022-09-07T07:34:54.520Z,82.29
2022-09-07T07:35:54.491Z,82.39
2022-09-07T07:36:54.478Z,81.89
2022-09-07T07:41:57.567Z,82.01
2022-09-07T07:42:54.412Z,81.18
2022-09-07T07:43:54.425Z,82.07
2022-09-07T07:45:55.383Z,79.58
2022-09-07T07:46:54.492Z,78.68
2022-09-07T07:47:54.364Z,78.44
2022-09-07T07:48:54.423Z,77.94
2022-09-07T07:50:30.760Z,77.55
2022-09-07T07:50:55.325Z,76.68
2022-09-07T07:53:55.565Z,77.48
2022-09-07T07:54:54.279Z,77.44
2022-09-07T07:55:54.270Z,77.98
2022-09-07T07:56:54.277Z,77.25
2022-09-07T07:57:54.247Z,78.14
2022-09-07T07:58:54.231Z,77.21
2022-09-07T07:59:54.223Z,76.91
2022-09-07T08:00:55.762Z,77.91
2022-09-07T08:01:54.362Z,76.97
2022-09-07T08:02:54.270Z,76.17
2022-09-07T08:03:54.189Z,75.87
2022-09-07T08:04:54.167Z,76.34
2022-09-07T08:05:54.178Z,75.94
2022-09-07T08:06:54.165Z,74.94
2022-09-07T08:07:54.165Z,75.27
2022-09-07T08:08:54.124Z,75.44
2022-09-07T08:09:54.112Z,74.41
2022-09-07T08:10:54.098Z,73.81
2022-09-07T08:11:54.109Z,73.77
2022-09-07T08:12:54.076Z,72.18
2022-09-07T08:13:54.068Z,72.44
2022-09-07T08:14:54.060Z,71.45
2022-09-07T08:15:54.151Z,72.64
2022-09-07T08:16:54.053Z,71.35
2022-09-07T08:17:54.022Z,71.65
2022-09-07T08:18:54.011Z,71.05
2022-09-07T08:19:54.021Z,70.52
2022-09-07T08:20:53.988Z,71.08
2022-09-07T08:21:54.115Z,70.48
2022-09-07T08:22:53.967Z,70.39
2022-09-07T08:23:53.959Z,70.19
2022-09-07T08:24:53.995Z,69.89
2022-09-07T08:25:53.935Z,69.69
2022-09-07T08:26:53.923Z,69.36
2022-09-07T08:27:53.933Z,69.46
2022-09-07T08:28:53.902Z,68.76
2022-09-07T08:29:53.891Z,68.96
2022-09-07T08:30:53.879Z,69.36
2022-09-07T08:31:54.012Z,69.32
2022-09-07T08:32:53.861Z,69.36
2022-09-07T08:33:53.850Z,69.76
2022-09-07T08:34:53.851Z,69.62
2022-09-07T08:35:53.826Z,68.93
2022-09-07T08:36:53.809Z,67.31
2022-09-07T08:37:53.817Z,67.27
2022-09-07T08:38:53.787Z,67.08
2022-09-07T08:39:53.903Z,67.47
2022-09-07T08:40:53.766Z,67.97
2022-09-07T08:41:53.758Z,67.64
2022-09-07T08:42:53.778Z,66.61
2022-09-07T08:43:53.737Z,67.01
2022-09-07T08:44:53.722Z,66.52
2022-09-07T08:45:53.716Z,65.09
2022-09-07T08:46:53.741Z,66.58
2022-09-07T08:47:53.693Z,64.90
2022-09-07T08:48:53.700Z,64.97
2022-09-07T08:49:53.701Z,64.50
2022-09-07T08:50:53.658Z,63.21
2022-09-07T08:51:53.648Z,63.98
2022-09-07T08:52:53.656Z,63.61
2022-09-07T08:53:53.641Z,63.88
2022-09-07T08:54:53.633Z,63.65
2022-09-07T08:55:53.604Z,63.78
2022-09-07T08:57:54.580Z,63.78
2022-09-07T08:58:53.570Z,64.44
2022-09-07T08:59:53.581Z,63.65
2022-09-07T09:01:30.654Z,63.22
2022-09-07T09:05:54.652Z,62.46
2022-09-07T09:06:53.755Z,65.03
2022-09-07T09:07:53.470Z,62.53
2022-09-07T09:08:53.460Z,62.82
2022-09-07T09:09:53.469Z,62.33
2022-09-07T09:10:53.459Z,61.44
2022-09-07T09:11:53.428Z,61.24
2022-09-07T09:12:53.415Z,61.02
2022-09-07T09:13:53.409Z,60.03
2022-09-07T09:14:53.394Z,60.32
2022-09-07T09:15:53.492Z,58.54
2022-09-07T09:16:53.371Z,59.23
2022-09-07T09:17:53.364Z,59.23
2022-09-07T09:18:53.350Z,59.90
2022-09-07T09:19:53.358Z,59.18
2022-09-07T09:20:53.350Z,59.80
2022-09-07T09:21:53.397Z,59.77
2022-09-07T09:22:53.310Z,59.70
2022-09-07T09:23:53.298Z,59.47
2022-09-07T09:24:53.306Z,59.67
2022-09-07T09:25:53.314Z,58.78
2022-09-07T09:26:53.287Z,57.79
2022-09-07T09:27:53.255Z,58.16
2022-09-07T09:28:53.241Z,58.06
2022-09-07T09:29:53.235Z,57.24
2022-09-07T09:30:53.303Z,57.24
2022-09-07T09:31:53.232Z,56.65
2022-09-07T09:32:53.200Z,56.51
2022-09-07T09:33:53.192Z,58.09
2022-09-07T09:34:53.184Z,57.18
2022-09-07T09:35:53.168Z,56.58
2022-09-07T09:36:53.174Z,57.67
2022-09-07T09:37:53.145Z,57.07
2022-09-07T09:38:53.240Z,56.78
2022-09-07T09:39:55.435Z,56.19
2022-09-07T09:40:53.111Z,56.71
2022-09-07T09:41:53.302Z,57.18
2022-09-07T09:42:53.092Z,58.22
2022-09-07T09:43:53.081Z,58.39
2022-09-07T09:44:53.069Z,56.78
2022-09-07T09:47:54.546Z,55.35
2022-09-07T09:48:53.030Z,55.83
2022-09-07T09:49:53.016Z,55.81
2022-09-07T09:52:53.983Z,55.68
2022-09-07T09:53:52.973Z,55.81
2022-09-07T09:54:52.959Z,56.08
2022-09-07T09:55:52.950Z,54.77
2022-09-07T09:56:52.959Z,55.58
2022-09-07T10:00:00.361Z,54.97
2022-09-07T10:04:52.872Z,54.77
2022-09-07T10:05:52.842Z,54.55
2022-09-07T10:06:52.831Z,53.99
2022-09-07T10:07:52.822Z,54.47
2022-09-07T10:08:52.828Z,54.45
2022-09-07T10:09:52.801Z,54.38
2022-09-07T10:10:52.808Z,54.97
2022-09-07T10:12:08.655Z,54.38
2022-09-07T10:12:53.764Z,54.90
2022-09-07T10:13:52.772Z,54.99
2022-09-07T10:14:52.743Z,54.60
2022-09-07T10:15:52.778Z,54.87
2022-09-07T10:16:52.743Z,54.57
2022-09-07T10:17:52.713Z,53.71
2022-09-07T10:18:52.701Z,54.23
2022-09-07T10:19:52.811Z,55.41
2022-09-07T10:20:52.678Z,54.82
2022-09-07T10:21:52.671Z,55.09
2022-09-07T10:22:52.679Z,55.29
2022-09-07T10:23:52.649Z,55.98
2022-09-07T10:24:52.645Z,54.97
2022-09-07T10:25:52.630Z,54.38
2022-09-07T10:26:52.618Z,54.45
2022-09-07T10:27:52.625Z,55.04
2022-09-07T10:29:08.428Z,54.16
2022-09-07T10:29:53.601Z,53.56
2022-09-07T10:30:52.600Z,53.64
2022-09-07T10:31:52.586Z,53.34
2022-09-07T10:32:52.550Z,53.27
2022-09-07T10:34:53.527Z,54.50
2022-09-07T10:35:52.520Z,54.93
2022-09-07T10:36:52.527Z,56.43
2022-09-07T10:37:52.497Z,55.62
2022-09-07T10:38:52.515Z,56.33
2022-09-07T10:39:55.813Z,56.33
2022-09-07T10:40:53.463Z,55.64
2022-09-07T10:41:52.454Z,55.94
2022-09-07T10:43:22.586Z,54.72
2022-09-07T10:43:53.432Z,54.90
2022-09-07T10:44:52.423Z,55.29
2022-09-07T10:45:52.484Z,55.58
2022-09-07T10:46:59.616Z,56.01
2022-09-07T10:47:53.415Z,54.90
2022-09-07T10:48:52.534Z,55.07
2022-09-07T10:50:53.354Z,55.95
2022-09-07T10:51:52.347Z,55.14
2022-09-07T10:52:52.338Z,54.45
2022-09-07T10:54:53.313Z,55.49
2022-09-07T10:55:52.305Z,56.13
2022-09-07T10:56:52.298Z,56.46
2022-09-07T10:57:52.312Z,56.46
2022-09-07T10:59:07.618Z,55.99
2022-09-07T11:00:09.365Z,57.01
2022-09-07T11:00:53.251Z,57.10
2022-09-07T11:01:52.310Z,57.50
2022-09-07T11:03:53.341Z,57.03
2022-09-07T11:04:52.204Z,57.23
2022-09-07T11:05:52.193Z,57.13
2022-09-07T11:06:52.200Z,56.54
2022-09-07T11:07:52.189Z,57.03
2022-09-07T11:09:53.146Z,57.73
2022-09-07T11:10:52.156Z,56.74
2022-09-07T11:12:07.385Z,56.54
2022-09-07T11:12:53.140Z,57.82
2022-09-07T11:14:11.984Z,57.82
2022-09-07T11:14:53.099Z,57.23
2022-09-07T11:15:52.138Z,56.14
2022-09-07T11:16:52.288Z,56.57
2022-09-07T11:17:53.216Z,56.37
2022-09-07T11:18:52.261Z,57.82
2022-09-07T11:19:52.040Z,57.73
2022-09-07T11:20:52.031Z,58.42
2022-09-07T11:21:59.281Z,58.45
2022-09-07T11:22:53.033Z,58.34
2022-09-07T11:23:52.000Z,59.33
2022-09-07T11:25:52.975Z,58.61
2022-09-07T11:26:51.986Z,58.25
2022-09-07T11:27:51.954Z,58.45
2022-09-07T11:29:52.930Z,58.54
2022-09-07T11:30:53.776Z,58.74
2022-09-07T11:31:51.910Z,59.23
2022-09-07T11:32:51.903Z,60.03
2022-09-07T11:34:52.907Z,58.64
2022-09-07T11:35:51.867Z,59.56
2022-09-07T11:36:51.862Z,60.25
2022-09-07T11:37:51.846Z,58.32
2022-09-07T11:38:51.863Z,57.50
2022-09-07T11:39:51.877Z,57.87
2022-09-07T11:40:51.817Z,56.06
2022-09-07T11:41:51.802Z,56.65
2022-09-07T11:42:51.795Z,56.09
2022-09-07T11:43:51.781Z,56.06
2022-09-07T11:44:51.793Z,55.41
2022-09-07T11:45:51.847Z,54.93
2022-09-07T11:46:51.750Z,55.09
2022-09-07T11:47:51.738Z,54.18
2022-09-07T11:48:51.729Z,53.78
2022-09-07T11:49:54.163Z,53.59
2022-09-07T11:50:52.732Z,54.33
2022-09-07T11:51:54.736Z,54.30
2022-09-07T11:52:54.700Z,54.60
2022-09-07T11:53:51.699Z,54.18
2022-09-07T11:54:51.744Z,54.18
2022-09-07T11:55:51.674Z,54.45
2022-09-07T11:56:51.642Z,52.26
2022-09-07T11:57:55.493Z,52.95
2022-09-07T11:58:51.624Z,52.03
2022-09-07T11:59:51.631Z,50.76
2022-09-07T12:00:51.600Z,51.57
2022-09-07T12:01:51.594Z,51.28
2022-09-07T12:03:00.197Z,51.76
2022-09-07T12:03:52.749Z,51.28
2022-09-07T12:04:56.030Z,51.67
2022-09-07T12:05:51.567Z,52.65
2022-09-07T12:06:51.553Z,51.76
2022-09-07T12:07:51.525Z,52.06
2022-09-07T12:08:51.520Z,52.06
2022-09-07T12:09:51.523Z,51.86
2022-09-07T12:10:51.512Z,51.18
2022-09-07T12:11:51.477Z,51.20
2022-09-07T12:12:51.500Z,51.42
2022-09-07T12:13:51.461Z,52.11
2022-09-07T12:14:51.447Z,52.14
2022-09-07T12:15:51.499Z,51.74
2022-09-07T12:16:51.426Z,52.14
2022-09-07T12:17:51.434Z,52.04
2022-09-07T12:18:51.428Z,52.14
2022-09-07T12:19:51.413Z,53.49
2022-09-07T12:20:51.386Z,53.36
2022-09-07T12:21:51.500Z,52.38
2022-09-07T12:22:51.363Z,52.48
2022-09-07T12:23:51.705Z,52.48
2022-09-07T12:24:51.370Z,51.99
2022-09-07T12:25:51.348Z,51.52
2022-09-07T12:26:51.318Z,51.72
2022-09-07T12:27:51.318Z,51.72
2022-09-07T12:28:51.297Z,52.01
2022-09-07T12:29:51.290Z,51.25
2022-09-07T12:30:51.328Z,51.92
2022-09-07T12:32:00.704Z,52.40
2022-09-07T12:32:54.514Z,51.62
2022-09-07T12:33:51.264Z,51.92
2022-09-07T12:34:51.272Z,52.04
2022-09-07T12:35:51.244Z,52.36
2022-09-07T12:36:51.211Z,53.05
2022-09-07T12:37:51.233Z,53.34
2022-09-07T12:38:51.214Z,53.54
2022-09-07T12:39:51.232Z,53.42
2022-09-07T12:40:51.166Z,53.52
2022-09-07T12:42:31.932Z,52.33
2022-09-07T12:42:52.145Z,52.23
2022-09-07T12:43:51.133Z,53.44
2022-09-07T12:44:51.241Z,52.36
2022-09-07T12:45:51.255Z,53.86
2022-09-07T12:46:51.149Z,53.44
2022-09-07T12:47:51.158Z,52.56
2022-09-07T12:48:51.088Z,53.61
2022-09-07T12:49:51.158Z,51.94
2022-09-07T12:50:51.149Z,52.36
2022-09-07T12:52:15.445Z,52.53
2022-09-07T12:52:52.037Z,51.54
2022-09-07T12:53:55.543Z,51.77
2022-09-07T12:55:09.922Z,51.37
2022-09-07T12:56:21.579Z,51.40
2022-09-07T12:57:51.979Z,52.68
2022-09-07T12:58:50.977Z,52.09
2022-09-07T12:59:51.006Z,51.40
2022-09-07T13:00:50.953Z,51.30
2022-09-07T13:01:51.046Z,52.39
2022-09-07T13:02:50.964Z,52.39
2022-09-07T13:03:51.874Z,52.19
2022-09-07T13:04:52.620Z,52.70
2022-09-07T13:05:50.893Z,55.30
2022-09-07T13:07:06.335Z,53.81
2022-09-07T13:07:51.870Z,54.24
2022-09-07T13:08:50.862Z,53.45
2022-09-07T13:09:50.869Z,53.75
2022-09-07T13:10:50.880Z,54.14
2022-09-07T13:11:50.834Z,54.73
2022-09-07T13:12:54.398Z,53.33
2022-09-07T13:14:09.567Z,54.31
2022-09-07T13:14:51.840Z,54.41
2022-09-07T13:15:50.797Z,54.11
2022-09-07T13:17:51.767Z,54.53
2022-09-07T13:18:50.756Z,54.83
2022-09-07T13:19:50.744Z,56.91
2022-09-07T13:20:50.752Z,57.03
2022-09-07T13:21:50.742Z,55.94
2022-09-07T13:22:50.712Z,55.15
2022-09-07T13:23:50.720Z,55.15
2022-09-07T13:24:50.870Z,54.46
2022-09-07T13:25:50.697Z,55.15
2022-09-07T13:26:51.410Z,56.00
2022-09-07T13:27:51.220Z,55.85
2022-09-07T13:28:50.666Z,57.10
2022-09-07T13:29:50.634Z,59.17
2022-09-07T13:30:50.674Z,60.39
2022-09-07T13:31:50.610Z,61.58
2022-09-07T13:33:51.603Z,62.47
2022-09-07T13:34:50.578Z,62.77
2022-09-07T13:35:50.567Z,62.07
2022-09-07T13:36:50.563Z,61.45
2022-09-07T13:37:50.546Z,61.62
2022-09-07T13:38:50.537Z,62.34
2022-09-07T13:39:50.625Z,61.85
2022-09-07T13:40:50.515Z,62.47